Time;durP1;ratioP1;P1;durP2;ratioP2;P2;SDS_P1;SDS_P2;PMS_P1;PMS_P2;Temp;Humidity;BMP_temperature;BMP_pressure;BME280_temperature;BME280_humidity;BME280_pressure;Samples;Min_cycle;Max_cycle;Signal;HPM_P1;HPM_P2
2024/03/07 00:01:37;;;;;;;15.87;11.73;;;8.30;1.00;;;;;;5074527;28;20213;-83
2024/03/07 00:04:03;;;;;;;16.23;12.07;;;8.10;1.00;;;;;;5079174;28;20672;-83
2024/03/07 00:06:28;;;;;;;16.87;12.43;;;8.10;1.00;;;;;;5074178;28;20167;-82
2024/03/07 00:08:54;;;;;;;17.77;14.03;;;8.20;1.00;;;;;;5074114;28;20181;-83
2024/03/07 00:11:20;;;;;;;20.67;12.93;;;8.30;1.00;;;;;;5086164;28;20203;-83
2024/03/07 00:13:46;;;;;;;17.03;12.27;;;8.30;1.00;;;;;;5107656;28;20178;-85
2024/03/07 00:16:11;;;;;;;17.20;13.40;;;8.20;1.00;;;;;;5112410;28;20174;-83
2024/03/07 00:18:38;;;;;;;14.17;12.37;;;8.30;1.00;;;;;;5110528;28;20163;-83
2024/03/07 00:21:03;;;;;;;18.13;13.27;;;8.30;1.00;;;;;;5111928;28;20179;-84
2024/03/07 00:23:30;;;;;;;19.93;14.03;;;8.10;1.00;;;;;;5111176;28;20642;-83
2024/03/07 00:25:56;;;;;;;18.07;13.70;;;8.10;2.40;;;;;;5110044;28;20631;-84
2024/03/07 00:28:21;;;;;;;20.27;13.57;;;8.00;4.90;;;;;;5111359;28;20167;-82
2024/03/07 00:30:47;;;;;;;18.47;14.63;;;7.90;6.40;;;;;;5111165;28;20619;-82
2024/03/07 00:33:14;;;;;;;19.63;14.70;;;7.80;8.70;;;;;;5111610;28;20546;-82
2024/03/07 00:35:40;;;;;;;21.00;15.30;;;7.80;11.00;;;;;;5111149;28;20171;-82
2024/03/07 00:38:06;;;;;;;19.40;16.93;;;7.80;12.40;;;;;;5110669;28;20219;-83
2024/03/07 00:40:32;;;;;;;22.07;16.87;;;7.60;14.90;;;;;;5111708;28;20178;-83
2024/03/07 00:42:59;;;;;;;21.03;16.23;;;7.60;19.10;;;;;;5111813;28;20578;-82
2024/03/07 00:45:25;;;;;;;21.27;16.97;;;7.60;21.40;;;;;;5109777;28;20171;-82
2024/03/07 00:47:51;;;;;;;24.20;16.73;;;7.50;23.70;;;;;;5110793;28;20219;-82
2024/03/07 00:50:16;;;;;;;21.67;17.27;;;7.50;23.90;;;;;;5112385;28;20598;-84
2024/03/07 00:52:42;;;;;;;22.90;17.63;;;7.60;25.50;;;;;;5111466;28;20171;-83
2024/03/07 00:55:08;;;;;;;22.83;18.63;;;7.50;27.00;;;;;;5109313;28;20700;-83
2024/03/07 00:57:34;;;;;;;22.97;18.10;;;7.50;28.30;;;;;;5111386;28;20171;-83
2024/03/07 01:00:00;;;;;;;26.07;18.67;;;7.40;28.40;;;;;;5110388;28;20626;-82
2024/03/07 01:02:26;;;;;;;25.23;19.37;;;7.30;31.30;;;;;;5111233;28;20267;-82
2024/03/07 01:04:53;;;;;;;24.47;18.03;;;7.20;37.40;;;;;;5112855;28;20167;-82
2024/03/07 01:07:19;;;;;;;27.60;18.77;;;7.30;39.90;;;;;;5111354;28;20181;-83
2024/03/07 01:09:45;;;;;;;25.13;18.80;;;7.20;41.20;;;;;;5111119;28;20178;-82
2024/03/07 01:12:12;;;;;;;29.33;21.50;;;7.20;43.10;;;;;;5110623;28;20183;-82
2024/03/07 01:14:37;;;;;;;26.97;20.30;;;7.20;46.90;;;;;;5109985;28;20269;-83
2024/03/07 01:17:03;;;;;;;27.27;19.90;;;7.30;46.60;;;;;;5110228;28;20703;-82
2024/03/07 01:19:29;;;;;;;28.70;21.57;;;7.40;44.40;;;;;;5110768;28;20549;-82
2024/03/07 01:21:54;;;;;;;30.80;22.27;;;7.40;41.50;;;;;;5111203;28;20183;-81
2024/03/07 01:24:20;;;;;;;31.63;22.17;;;7.40;41.70;;;;;;5112679;28;20171;-82
2024/03/07 01:26:46;;;;;;;31.03;21.77;;;7.30;41.80;;;;;;5111613;28;20251;-82
2024/03/07 01:29:13;;;;;;;29.70;22.20;;;7.40;43.50;;;;;;5110182;28;20328;-83
2024/03/07 01:31:39;;;;;;;30.00;23.13;;;7.20;48.80;;;;;;5110297;28;20264;-82
2024/03/07 01:34:04;;;;;;;31.80;22.60;;;7.20;47.60;;;;;;5109718;28;20197;-82
2024/03/07 01:36:30;;;;;;;29.43;21.97;;;7.20;51.10;;;;;;5110751;28;20175;-82
2024/03/07 01:38:56;;;;;;;30.20;23.27;;;7.20;53.30;;;;;;5110270;28;20199;-82
2024/03/07 01:41:21;;;;;;;31.60;23.80;;;7.30;51.80;;;;;;5110861;28;20651;-82
2024/03/07 01:43:47;;;;;;;32.83;24.70;;;7.30;53.60;;;;;;5108837;28;20182;-83
2024/03/07 01:46:13;;;;;;;33.73;25.73;;;7.20;56.00;;;;;;5109359;28;20175;-84
2024/03/07 01:48:40;;;;;;;33.93;25.27;;;7.30;55.30;;;;;;5111713;28;20240;-83
2024/03/07 01:51:06;;;;;;;35.37;26.93;;;7.30;54.90;;;;;;5115198;28;20686;-82
2024/03/07 01:53:33;;;;;;;38.27;26.70;;;7.30;56.90;;;;;;5113612;28;20217;-83
2024/03/07 01:56:00;;;;;;;35.63;25.73;;;7.10;59.00;;;;;;5116318;28;20175;-82
2024/03/07 01:58:26;;;;;;;36.80;26.53;;;7.00;65.00;;;;;;5113577;28;20202;-82
2024/03/07 02:00:52;;;;;;;37.03;26.77;;;7.10;69.40;;;;;;5113102;28;20206;-83
2024/03/07 02:03:18;;;;;;;36.73;27.50;;;7.00;70.10;;;;;;5114721;28;20319;-83
2024/03/07 02:05:44;;;;;;;39.47;27.57;;;7.00;72.50;;;;;;5112565;28;20163;-83
2024/03/07 02:08:11;;;;;;;37.67;28.07;;;7.00;72.50;;;;;;5114510;28;20532;-83
2024/03/07 02:10:36;;;;;;;37.87;28.60;;;7.10;76.80;;;;;;5114034;28;20259;-83
2024/03/07 02:13:02;;;;;;;43.80;29.43;;;6.90;79.00;;;;;;5113398;28;20167;-82
2024/03/07 02:15:28;;;;;;;38.00;30.00;;;7.00;81.50;;;;;;5114670;28;20182;-82
2024/03/07 02:17:53;;;;;;;41.80;30.53;;;7.00;84.60;;;;;;5114522;28;20171;-83
2024/03/07 02:20:19;;;;;;;41.50;31.07;;;7.00;86.20;;;;;;5112807;28;20178;-82
2024/03/07 02:22:45;;;;;;;41.37;29.60;;;6.90;87.00;;;;;;5096586;28;20184;-83
2024/03/07 02:25:11;;;;;;;40.87;29.30;;;7.00;86.30;;;;;;5114006;28;20174;-82
2024/03/07 02:27:37;;;;;;;44.33;29.57;;;6.90;88.40;;;;;;5114152;28;20171;-82
2024/03/07 02:30:05;;;;;;;41.47;29.30;;;6.80;91.00;;;;;;5114058;28;20172;-83
2024/03/07 02:32:31;;;;;;;39.40;29.90;;;6.80;93.40;;;;;;5113804;28;20182;-82
2024/03/07 02:34:57;;;;;;;40.63;30.30;;;6.80;94.70;;;;;;5114019;28;20163;-82
2024/03/07 02:37:22;;;;;;;46.37;31.50;;;6.80;95.30;;;;;;5113603;28;20178;-82
2024/03/07 02:39:48;;;;;;;43.17;31.97;;;6.70;96.00;;;;;;5113568;28;20247;-83
2024/03/07 02:42:14;;;;;;;51.27;31.97;;;6.70;97.40;;;;;;5112954;28;20275;-82
2024/03/07 02:44:40;;;;;;;46.37;33.13;;;6.60;98.40;;;;;;5112096;28;20219;-84
2024/03/07 02:47:06;;;;;;;48.70;33.77;;;6.70;99.20;;;;;;5111615;28;20171;-83
2024/03/07 02:49:32;;;;;;;47.77;33.40;;;6.70;99.90;;;;;;5113406;28;20677;-83
2024/03/07 02:51:58;;;;;;;47.87;33.63;;;6.60;99.20;;;;;;5112521;28;20214;-82
2024/03/07 02:54:23;;;;;;;46.27;34.00;;;6.60;99.90;;;;;;5105573;28;20255;-84
2024/03/07 02:56:49;;;;;;;48.73;34.17;;;6.60;99.90;;;;;;5093032;28;20655;-82
2024/03/07 02:59:16;;;;;;;46.83;35.50;;;6.50;99.90;;;;;;5092915;28;20620;-82
2024/03/07 03:01:42;;;;;;;48.30;34.07;;;6.50;99.90;;;;;;5093210;28;20176;-82
2024/03/07 03:04:07;;;;;;;48.20;34.80;;;6.60;99.90;;;;;;5093107;28;20241;-84
2024/03/07 03:06:33;;;;;;;47.63;33.80;;;6.50;99.90;;;;;;5092517;28;20218;-84
2024/03/07 03:08:59;;;;;;;52.90;35.90;;;6.60;99.90;;;;;;5091330;28;20182;-83
2024/03/07 03:11:27;;;;;;;50.60;34.63;;;6.50;99.90;;;;;;5091843;28;20738;-83
2024/03/07 03:13:53;;;;;;;50.00;36.53;;;6.50;99.90;;;;;;5092271;28;20164;-83
2024/03/07 03:16:19;;;;;;;51.37;36.93;;;6.40;99.90;;;;;;5091519;28;20672;-82
2024/03/07 03:18:45;;;;;;;53.53;38.63;;;6.40;99.90;;;;;;5091587;28;20172;-82
2024/03/07 03:21:11;;;;;;;50.40;36.40;;;6.40;99.90;;;;;;5092191;28;20666;-83
2024/03/07 03:23:36;;;;;;;53.30;37.53;;;6.50;99.90;;;;;;5093076;28;20173;-83
2024/03/07 03:26:03;;;;;;;52.00;38.83;;;6.30;99.90;;;;;;5092264;28;20183;-83
2024/03/07 03:28:29;;;;;;;50.77;37.73;;;6.30;99.90;;;;;;5091520;28;20181;-83
2024/03/07 03:30:54;;;;;;;52.80;38.63;;;6.50;99.90;;;;;;5092303;28;20203;-83
2024/03/07 03:33:20;;;;;;;53.20;37.30;;;6.30;99.90;;;;;;5091940;28;20174;-83
2024/03/07 03:35:46;;;;;;;60.37;39.53;;;6.30;99.90;;;;;;5091100;28;20168;-84
2024/03/07 03:38:12;;;;;;;57.30;39.53;;;6.20;99.90;;;;;;5091918;28;20168;-85
2024/03/07 03:40:38;;;;;;;60.13;40.43;;;6.30;99.90;;;;;;5090803;28;20167;-83
2024/03/07 03:43:04;;;;;;;57.97;40.97;;;6.20;99.90;;;;;;5097671;28;20186;-83
2024/03/07 03:45:32;;;;;;;56.13;39.37;;;6.20;99.90;;;;;;5099546;28;20187;-83
2024/03/07 03:47:57;;;;;;;57.77;40.67;;;6.20;99.90;;;;;;5097117;28;20182;-88
2024/03/07 03:50:23;;;;;;;60.40;38.53;;;6.20;99.90;;;;;;5091177;28;20207;-83
2024/03/07 03:52:49;;;;;;;64.43;40.27;;;6.30;99.90;;;;;;5091169;28;20193;-84
2024/03/07 03:55:15;;;;;;;61.37;41.33;;;6.30;99.90;;;;;;5091837;28;20221;-82
2024/03/07 03:57:42;;;;;;;59.47;40.40;;;6.20;99.90;;;;;;5090436;28;20167;-82
2024/03/07 04:00:12;;;;;;;63.73;42.67;;;6.20;99.90;;;;;;5092140;28;20214;-81
2024/03/07 04:02:47;;;;;;;59.87;41.30;;;6.10;99.90;;;;;;5093044;28;20182;-82
2024/03/07 04:05:14;;;;;;;62.20;41.20;;;6.20;99.90;;;;;;5090586;28;20292;-82
2024/03/07 04:07:41;;;;;;;63.80;41.50;;;6.10;99.90;;;;;;5091677;28;20224;-83
2024/03/07 04:10:08;;;;;;;57.80;40.83;;;6.10;99.90;;;;;;5091943;28;20538;-82
2024/03/07 04:12:39;;;;;;;58.53;41.70;;;6.10;99.90;;;;;;5090209;28;20599;-83
2024/03/07 04:15:07;;;;;;;60.67;40.90;;;6.00;99.90;;;;;;5090967;28;20168;-83
2024/03/07 04:17:33;;;;;;;59.97;42.27;;;6.00;99.90;;;;;;5090862;28;20184;-83
2024/03/07 04:20:00;;;;;;;60.60;40.27;;;6.00;99.90;;;;;;5092500;28;20175;-84
2024/03/07 04:22:27;;;;;;;60.13;41.97;;;6.00;99.90;;;;;;5089894;28;20175;-83
2024/03/07 04:24:56;;;;;;;66.17;43.77;;;6.00;99.90;;;;;;5089582;28;20195;-82
2024/03/07 04:27:22;;;;;;;65.63;43.90;;;5.90;99.90;;;;;;5091293;28;20214;-83
2024/03/07 04:29:48;;;;;;;65.50;45.17;;;6.20;99.90;;;;;;5090446;28;20179;-83
2024/03/07 04:32:14;;;;;;;62.07;43.07;;;5.90;99.90;;;;;;5090540;28;20172;-83
2024/03/07 04:34:40;;;;;;;67.87;44.37;;;5.90;99.90;;;;;;5091823;28;20228;-81
2024/03/07 04:37:06;;;;;;;69.20;45.47;;;5.90;99.90;;;;;;5090957;28;20168;-82
2024/03/07 04:39:32;;;;;;;65.27;44.20;;;5.90;99.90;;;;;;5090250;28;20283;-82
2024/03/07 04:42:08;;;;;;;71.77;46.43;;;6.00;99.90;;;;;;5091461;28;20175;-82
2024/03/07 04:44:36;;;;;;;69.93;45.50;;;6.00;99.90;;;;;;5090556;28;20168;-83
2024/03/07 04:47:03;;;;;;;68.83;43.30;;;6.00;99.90;;;;;;5090994;28;20175;-83
2024/03/07 04:49:31;;;;;;;70.20;46.27;;;5.90;99.90;;;;;;5090295;28;20225;-82
2024/03/07 04:51:59;;;;;;;66.50;44.13;;;6.00;99.90;;;;;;5090026;28;20727;-82
2024/03/07 04:54:26;;;;;;;72.20;46.23;;;6.10;99.90;;;;;;5091017;28;20172;-83
2024/03/07 04:56:53;;;;;;;68.90;45.57;;;5.90;99.90;;;;;;5090349;28;20273;-82
2024/03/07 04:59:20;;;;;;;68.43;45.07;;;5.90;99.90;;;;;;5089666;28;20647;-83
2024/03/07 05:01:47;;;;;;;74.00;47.10;;;6.00;99.90;;;;;;5090276;28;20171;-83
2024/03/07 05:04:14;;;;;;;75.57;47.37;;;6.00;99.90;;;;;;5091101;28;20183;-83
2024/03/07 05:06:40;;;;;;;79.23;48.57;;;5.90;99.90;;;;;;5090080;28;20183;-83
2024/03/07 05:09:08;;;;;;;79.50;47.77;;;5.90;99.90;;;;;;5089570;28;20171;-83
2024/03/07 05:11:35;;;;;;;76.00;46.83;;;5.90;99.90;;;;;;5090707;28;20218;-83
2024/03/07 05:14:01;;;;;;;71.77;44.80;;;6.00;99.90;;;;;;5090025;28;20221;-83
2024/03/07 05:16:27;;;;;;;71.93;46.03;;;5.80;99.90;;;;;;5090363;28;20831;-83
2024/03/07 05:18:53;;;;;;;77.17;47.20;;;5.70;99.90;;;;;;5090698;28;20592;-83
2024/03/07 05:24:05;;;;;;;72.10;44.97;;;5.90;99.90;;;;;;5091401;28;20242;-82
2024/03/07 05:26:35;;;;;;;72.43;46.57;;;5.70;99.90;;;;;;5094370;28;20246;-83
2024/03/07 05:29:07;;;;;;;83.20;50.67;;;5.80;99.90;;;;;;5094124;28;20267;-83
2024/03/07 05:31:37;;;;;;;75.43;48.17;;;5.80;99.90;;;;;;5094324;28;20199;-82
2024/03/07 05:34:04;;;;;;;91.83;52.07;;;6.00;99.90;;;;;;5094310;28;20224;-82
2024/03/07 05:36:32;;;;;;;96.27;53.37;;;5.90;99.90;;;;;;5100715;28;20230;-83
2024/03/07 05:39:08;;;;;;;95.57;52.33;;;5.90;99.90;;;;;;5103229;28;20268;-83
2024/03/07 05:41:34;;;;;;;96.27;52.27;;;5.90;99.90;;;;;;5098764;28;20179;-83
2024/03/07 05:44:00;;;;;;;103.50;56.67;;;5.90;99.90;;;;;;5093770;28;20227;-83
2024/03/07 05:46:25;;;;;;;98.53;53.37;;;5.90;99.90;;;;;;5094069;28;20172;-83
2024/03/07 05:48:55;;;;;;;100.50;52.20;;;5.90;99.90;;;;;;5093880;28;20528;-83
2024/03/07 05:51:24;;;;;;;100.77;53.63;;;5.80;99.90;;;;;;5094574;28;20211;-84
2024/03/07 05:53:51;;;;;;;95.13;51.30;;;5.70;99.90;;;;;;5094830;28;20168;-82
2024/03/07 05:56:16;;;;;;;98.17;50.30;;;5.60;99.90;;;;;;5094895;28;20167;-84
2024/03/07 05:58:42;;;;;;;101.57;53.33;;;5.50;99.90;;;;;;5094392;28;20167;-84
2024/03/07 06:01:08;;;;;;;100.80;51.20;;;5.50;99.90;;;;;;5094019;28;20720;-83
2024/03/07 06:03:34;;;;;;;113.73;53.00;;;5.40;99.90;;;;;;5093966;28;20245;-84
2024/03/07 06:06:00;;;;;;;108.17;56.97;;;5.50;99.90;;;;;;5094414;28;20179;-83
2024/03/07 06:08:27;;;;;;;109.43;53.77;;;5.40;99.90;;;;;;5094258;28;20171;-82
2024/03/07 06:10:52;;;;;;;103.53;51.87;;;5.40;99.90;;;;;;5094233;28;20206;-83
2024/03/07 06:13:18;;;;;;;110.17;55.57;;;5.40;99.90;;;;;;5093859;28;20163;-84
2024/03/07 06:15:45;;;;;;;107.13;49.47;;;5.40;99.90;;;;;;5094346;28;20262;-84
2024/03/07 06:18:13;;;;;;;111.17;54.00;;;5.40;99.90;;;;;;5094047;28;20177;-82
2024/03/07 06:20:43;;;;;;;108.70;53.97;;;5.30;99.90;;;;;;5094089;28;20183;-83
2024/03/07 06:23:11;;;;;;;117.07;56.17;;;5.30;99.90;;;;;;5093622;28;20174;-84
2024/03/07 06:25:47;;;;;;;114.27;55.97;;;5.40;99.90;;;;;;5094232;28;20180;-83
2024/03/07 06:28:13;;;;;;;115.40;55.43;;;5.50;99.90;;;;;;5093972;28;20627;-82
2024/03/07 06:30:41;;;;;;;120.43;58.60;;;5.40;99.90;;;;;;5095226;28;20203;-81
2024/03/07 06:33:07;;;;;;;119.30;56.37;;;5.50;99.90;;;;;;5093376;28;20172;-83
2024/03/07 06:35:36;;;;;;;104.40;51.23;;;5.60;99.90;;;;;;5086338;28;20191;-84
2024/03/07 06:38:03;;;;;;;108.10;53.50;;;5.40;99.90;;;;;;5086536;28;20237;-83
2024/03/07 06:40:29;;;;;;;123.60;58.97;;;5.40;99.90;;;;;;5090133;28;20171;-83
2024/03/07 06:42:55;;;;;;;111.83;54.93;;;5.40;99.90;;;;;;5094058;28;20180;-83
2024/03/07 06:45:21;;;;;;;113.37;54.63;;;5.40;99.90;;;;;;5093324;28;20564;-84
2024/03/07 06:47:47;;;;;;;110.43;52.80;;;5.50;99.90;;;;;;5074987;28;20176;-83
2024/03/07 06:50:19;;;;;;;103.93;52.13;;;5.40;99.90;;;;;;5085393;28;20588;-82
2024/03/07 06:52:49;;;;;;;112.17;53.77;;;5.40;99.90;;;;;;5093652;28;20176;-84
2024/03/07 06:55:18;;;;;;;103.30;53.90;;;5.50;99.90;;;;;;5075690;28;20209;-85
2024/03/07 06:57:45;;;;;;;104.33;55.27;;;5.30;99.90;;;;;;5073584;28;20237;-84
2024/03/07 07:00:21;;;;;;;109.40;57.03;;;5.30;99.90;;;;;;5072751;28;20171;-82
2024/03/07 07:02:47;;;;;;;109.07;53.97;;;5.40;99.90;;;;;;5072735;28;20191;-83
2024/03/07 07:05:18;;;;;;;104.67;51.67;;;5.40;99.90;;;;;;5073402;28;20255;-83
2024/03/07 07:07:50;;;;;;;110.63;52.30;;;5.50;99.90;;;;;;5072876;28;20184;-84
2024/03/07 07:10:17;;;;;;;111.93;54.37;;;5.60;99.90;;;;;;5070728;28;20202;-84
2024/03/07 07:12:47;;;;;;;108.03;56.73;;;5.50;99.90;;;;;;5072852;28;20176;-83
2024/03/07 07:15:16;;;;;;;96.63;52.40;;;5.70;99.90;;;;;;5072925;28;20239;-83
2024/03/07 07:17:46;;;;;;;104.20;53.03;;;5.70;99.90;;;;;;5089621;28;20175;-87
2024/03/07 07:20:14;;;;;;;91.47;49.03;;;5.70;99.90;;;;;;5089262;28;20172;-82
2024/03/07 07:22:41;;;;;;;102.17;52.00;;;5.70;99.90;;;;;;5091408;28;20754;-83
2024/03/07 07:25:13;;;;;;;102.00;52.33;;;5.70;99.90;;;;;;5091400;28;20167;-82
2024/03/07 07:27:46;;;;;;;98.63;51.43;;;5.70;99.90;;;;;;5092584;28;20172;-83
2024/03/07 07:30:14;;;;;;;100.30;52.30;;;5.70;99.90;;;;;;5095549;28;20513;-82
2024/03/07 07:32:41;;;;;;;95.53;49.03;;;5.60;99.90;;;;;;5100615;28;20176;-83
2024/03/07 07:35:11;;;;;;;101.80;54.50;;;5.60;99.90;;;;;;5107441;28;20163;-82
2024/03/07 07:37:42;;;;;;;90.67;47.57;;;5.70;99.90;;;;;;5092955;28;20221;-84
2024/03/07 07:40:12;;;;;;;90.97;47.50;;;5.50;99.90;;;;;;5090871;28;20192;-82
2024/03/07 07:42:39;;;;;;;90.97;48.17;;;5.40;99.90;;;;;;5089604;28;20175;-83
2024/03/07 07:45:06;;;;;;;96.83;48.30;;;5.40;99.90;;;;;;5090749;28;20232;-83
2024/03/07 07:47:32;;;;;;;97.90;50.03;;;5.50;99.90;;;;;;5088734;28;20179;-84
2024/03/07 07:49:58;;;;;;;93.20;47.77;;;5.60;99.90;;;;;;5090331;28;20189;-83
2024/03/07 07:52:24;;;;;;;95.50;46.60;;;5.70;99.90;;;;;;5090607;28;20219;-90
2024/03/07 07:54:49;;;;;;;86.20;43.20;;;5.50;99.90;;;;;;5090676;28;20193;-83
2024/03/07 07:57:15;;;;;;;98.90;47.33;;;5.40;99.90;;;;;;5091578;28;20271;-82
2024/03/07 07:59:41;;;;;;;92.43;45.83;;;5.30;99.90;;;;;;5092213;28;20210;-82
2024/03/07 08:02:06;;;;;;;91.70;46.47;;;5.30;99.90;;;;;;5091626;28;20188;-83
2024/03/07 08:04:32;;;;;;;91.37;48.40;;;5.30;99.90;;;;;;5092018;28;20258;-84
2024/03/07 08:06:58;;;;;;;95.77;48.03;;;5.30;99.90;;;;;;5091876;28;20635;-82
2024/03/07 08:09:24;;;;;;;93.77;48.20;;;5.40;99.90;;;;;;5092067;28;20193;-88
2024/03/07 08:11:49;;;;;;;85.53;46.53;;;5.40;99.90;;;;;;5093171;28;20205;-84
2024/03/07 08:14:15;;;;;;;86.37;44.50;;;5.50;99.90;;;;;;5091841;28;20535;-83
2024/03/07 08:16:41;;;;;;;96.27;48.13;;;5.50;99.90;;;;;;5092242;28;20187;-83
2024/03/07 08:19:08;;;;;;;98.53;48.90;;;5.10;99.90;;;;;;5092031;28;20179;-83
2024/03/07 08:21:34;;;;;;;93.37;46.40;;;5.40;99.90;;;;;;5091664;28;20283;-86
2024/03/07 08:24:03;;;;;;;95.90;48.87;;;5.40;99.90;;;;;;5091897;28;20209;-81
2024/03/07 08:26:29;;;;;;;89.47;43.63;;;5.40;99.90;;;;;;5091588;28;20199;-83
2024/03/07 08:28:55;;;;;;;96.67;47.30;;;5.50;99.90;;;;;;5091485;28;20260;-84
2024/03/07 08:31:20;;;;;;;98.93;49.50;;;5.60;99.90;;;;;;5091157;28;20336;-83
2024/03/07 08:33:46;;;;;;;90.70;46.67;;;5.70;99.90;;;;;;5091492;28;20223;-82
2024/03/07 08:36:12;;;;;;;85.37;43.97;;;5.70;99.90;;;;;;5091422;28;20186;-85
2024/03/07 08:38:37;;;;;;;90.77;49.00;;;5.80;99.90;;;;;;5091615;28;20198;-84
2024/03/07 08:41:03;;;;;;;87.57;47.50;;;5.90;99.90;;;;;;5092337;28;20623;-86
2024/03/07 08:43:29;;;;;;;89.50;44.97;;;5.90;99.90;;;;;;5091163;28;20176;-82
2024/03/07 08:45:54;;;;;;;78.03;41.27;;;5.90;99.90;;;;;;5091765;28;20720;-84
2024/03/07 08:48:20;;;;;;;79.93;43.67;;;5.90;99.90;;;;;;5091573;28;20183;-83
2024/03/07 08:50:46;;;;;;;90.13;43.40;;;6.00;99.90;;;;;;5091246;28;20298;-82
2024/03/07 08:53:11;;;;;;;82.40;42.17;;;5.80;99.90;;;;;;5091216;28;20513;-83
2024/03/07 08:55:37;;;;;;;69.37;41.27;;;5.80;99.90;;;;;;5091241;28;20258;-83
2024/03/07 08:58:03;;;;;;;80.20;42.97;;;5.90;99.90;;;;;;5091552;28;20167;-83
2024/03/07 09:00:28;;;;;;;75.43;41.73;;;5.80;99.90;;;;;;5091223;28;20175;-83
2024/03/07 09:02:58;;;;;;;77.97;42.47;;;5.90;99.90;;;;;;5092616;28;20551;-84
2024/03/07 09:05:24;;;;;;;84.03;45.37;;;6.10;99.90;;;;;;5090956;28;20173;-84
2024/03/07 09:07:53;;;;;;;69.33;40.63;;;6.20;99.90;;;;;;5090812;28;20517;-84
2024/03/07 09:10:20;;;;;;;75.23;43.50;;;6.20;99.90;;;;;;5090999;28;20195;-84
2024/03/07 09:12:50;;;;;;;71.90;42.10;;;6.40;99.90;;;;;;5090668;28;20175;-83
2024/03/07 09:15:21;;;;;;;77.80;43.53;;;6.40;99.90;;;;;;5091245;28;20167;-82
2024/03/07 09:17:47;;;;;;;73.23;42.07;;;6.40;99.90;;;;;;5090932;28;20168;-83
2024/03/07 09:20:16;;;;;;;70.80;38.27;;;6.40;99.90;;;;;;5091164;28;20189;-83
2024/03/07 09:22:47;;;;;;;71.33;41.60;;;6.40;99.90;;;;;;5091303;28;20305;-82
2024/03/07 09:25:13;;;;;;;62.97;37.33;;;6.50;99.90;;;;;;5097421;28;20184;-83
2024/03/07 09:27:42;;;;;;;71.10;40.73;;;6.50;99.90;;;;;;5097109;28;20775;-83
2024/03/07 09:30:11;;;;;;;58.83;38.20;;;6.60;99.90;;;;;;5093676;28;20533;-83
2024/03/07 09:32:41;;;;;;;68.27;37.83;;;6.60;99.90;;;;;;5090644;28;20540;-82
2024/03/07 09:35:13;;;;;;;65.00;38.00;;;6.50;99.90;;;;;;5091149;28;20172;-92
2024/03/07 09:37:43;;;;;;;66.40;39.17;;;6.50;99.90;;;;;;5090799;28;20201;-89
2024/03/07 09:40:13;;;;;;;59.90;38.17;;;6.70;99.90;;;;;;5090704;28;20192;-83
2024/03/07 09:42:45;;;;;;;65.47;38.50;;;6.70;99.90;;;;;;5090392;28;20547;-84
2024/03/07 09:45:15;;;;;;;65.17;38.23;;;6.90;99.90;;;;;;5091255;28;20168;-83
2024/03/07 09:47:41;;;;;;;62.23;39.33;;;6.90;99.90;;;;;;5090448;28;20172;-83
2024/03/07 09:50:08;;;;;;;60.63;35.17;;;7.00;99.90;;;;;;5090566;28;20180;-83
2024/03/07 09:52:35;;;;;;;59.60;36.93;;;7.00;99.90;;;;;;5090908;28;20262;-84
2024/03/07 09:55:02;;;;;;;56.97;38.17;;;7.00;99.90;;;;;;5091100;28;20236;-85
2024/03/07 09:57:32;;;;;;;64.17;41.13;;;7.10;99.90;;;;;;5090794;28;20187;-83
2024/03/07 09:59:59;;;;;;;66.80;40.30;;;7.30;99.90;;;;;;5091283;28;20179;-84
2024/03/07 10:02:26;;;;;;;69.20;39.73;;;7.40;99.90;;;;;;5090900;28;20567;-84
2024/03/07 10:04:54;;;;;;;64.43;39.43;;;7.60;99.90;;;;;;5090662;28;20183;-82
2024/03/07 10:07:21;;;;;;;58.67;38.57;;;7.60;99.90;;;;;;5090899;28;20624;-83
2024/03/07 10:09:47;;;;;;;57.83;36.57;;;7.60;99.90;;;;;;5090485;28;20187;-83
2024/03/07 10:12:15;;;;;;;61.13;38.10;;;7.50;99.90;;;;;;5093359;28;20227;-84
2024/03/07 10:14:50;;;;;;;56.77;35.90;;;7.50;99.90;;;;;;5094208;28;20244;-84
2024/03/07 10:17:17;;;;;;;53.63;36.70;;;7.60;99.90;;;;;;5094398;28;20704;-83
2024/03/07 10:19:46;;;;;;;63.97;37.30;;;7.60;99.90;;;;;;5094203;28;20180;-83
2024/03/07 10:22:12;;;;;;;58.53;36.50;;;7.60;99.90;;;;;;5093959;28;20455;-83
2024/03/07 10:24:38;;;;;;;53.57;37.13;;;7.60;99.90;;;;;;5094102;28;20670;-84
2024/03/07 10:27:04;;;;;;;57.47;36.67;;;7.70;99.90;;;;;;5094219;28;20542;-84
2024/03/07 10:29:29;;;;;;;54.97;37.00;;;7.90;99.90;;;;;;5094078;28;20187;-83
2024/03/07 10:31:55;;;;;;;58.73;38.30;;;8.00;99.90;;;;;;5093899;28;20207;-83
2024/03/07 10:34:23;;;;;;;54.30;38.53;;;8.10;99.90;;;;;;5095342;28;20255;-84
2024/03/07 10:36:49;;;;;;;56.37;37.67;;;8.20;99.90;;;;;;5093851;28;20214;-82
2024/03/07 10:39:15;;;;;;;55.13;35.80;;;8.20;99.90;;;;;;5093522;28;20249;-84
2024/03/07 10:41:46;;;;;;;59.23;37.40;;;8.30;99.90;;;;;;5096114;28;20258;-83
2024/03/07 10:44:24;;;;;;;58.40;37.83;;;8.30;99.90;;;;;;5093220;28;20206;-83
2024/03/07 10:46:54;;;;;;;54.40;34.90;;;8.40;99.90;;;;;;5093668;28;20182;-83
2024/03/07 10:49:24;;;;;;;53.40;36.20;;;8.60;99.90;;;;;;5094591;28;20280;-83
2024/03/07 10:52:14;;;;;;;56.77;36.17;;;8.60;99.90;;;;;;5093128;28;20279;-83
2024/03/07 10:54:51;;;;;;;53.87;37.30;;;8.70;99.80;;;;;;5092722;28;20175;-83
2024/03/07 10:57:40;;;;;;;57.87;37.43;;;8.70;99.90;;;;;;5094577;28;20212;-83
2024/03/07 11:02:55;;;;;;;51.47;31.13;;;8.80;99.20;;;;;;5094551;28;20230;-82
2024/03/07 11:05:29;;;;;;;50.67;33.73;;;8.80;97.10;;;;;;5093998;28;20276;-83
2024/03/07 11:07:57;;;;;;;51.97;35.33;;;9.00;98.80;;;;;;5093175;28;20176;-84
2024/03/07 11:10:24;;;;;;;44.67;33.80;;;9.10;96.20;;;;;;5092267;28;20194;-83
2024/03/07 11:12:51;;;;;;;47.23;35.50;;;9.20;93.80;;;;;;5093461;28;20187;-83
2024/03/07 11:15:20;;;;;;;49.57;34.97;;;9.30;93.30;;;;;;5092764;28;20167;-82
2024/03/07 11:17:47;;;;;;;47.50;34.63;;;9.50;91.90;;;;;;5094101;28;20197;-83
2024/03/07 11:20:23;;;;;;;47.33;35.60;;;9.60;88.40;;;;;;5105040;28;20168;-83
2024/03/07 11:22:50;;;;;;;53.30;37.57;;;9.60;87.40;;;;;;5102277;28;20197;-83
2024/03/07 11:25:21;;;;;;;44.87;32.03;;;9.90;85.70;;;;;;5093073;28;20195;-90
2024/03/07 11:28:01;;;;;;;43.30;30.80;;;9.90;74.90;;;;;;5092322;28;20657;-84
2024/03/07 11:30:27;;;;;;;43.97;31.17;;;9.90;47.60;;;;;;5091857;28;20232;-83
2024/03/07 11:32:54;;;;;;;40.43;31.33;;;9.90;11.20;;;;;;5092414;28;20178;-84
2024/03/07 11:35:35;;;;;;;43.97;32.20;;;9.90;10.10;;;;;;5092472;28;20193;-91
2024/03/07 11:38:04;;;;;;;44.93;32.40;;;10.00;4.90;;;;;;5091769;28;20669;-84
2024/03/07 11:40:30;;;;;;;40.87;30.73;;;10.10;1.00;;;;;;5090412;28;20179;-92
2024/03/07 11:42:59;;;;;;;38.03;28.80;;;10.20;1.00;;;;;;5091994;28;20233;-83
2024/03/07 11:45:28;;;;;;;43.57;30.20;;;10.20;1.00;;;;;;5091915;28;20284;-83
2024/03/07 11:48:11;;;;;;;39.23;28.77;;;10.30;1.00;;;;;;5092212;28;20167;-84
2024/03/07 11:50:40;;;;;;;38.83;29.87;;;10.30;1.00;;;;;;5091804;28;20207;-83
2024/03/07 11:53:08;;;;;;;39.83;29.60;;;10.50;1.00;;;;;;5092054;28;20262;-83
2024/03/07 11:55:45;;;;;;;38.30;29.43;;;10.70;1.00;;;;;;5092024;28;20248;-84
2024/03/07 11:58:18;;;;;;;37.43;28.47;;;10.80;1.00;;;;;;5092105;28;20171;-86
2024/03/07 12:00:45;;;;;;;32.90;27.20;;;10.90;1.00;;;;;;5091642;28;20176;-83
2024/03/07 12:03:13;;;;;;;34.43;27.20;;;11.00;1.00;;;;;;5091798;28;20610;-82
2024/03/07 12:05:40;;;;;;;32.17;23.70;;;11.00;99.90;;;;;;5091505;28;20271;-82
2024/03/07 12:08:07;;;;;;;33.57;24.93;;;11.00;99.90;;;;;;5091754;28;20647;-83
2024/03/07 12:10:33;;;;;;;33.83;27.13;;;10.90;99.90;;;;;;5092027;28;20222;-83
2024/03/07 12:13:01;;;;;;;31.57;24.57;;;10.90;99.90;;;;;;5091715;28;20652;-84
2024/03/07 12:15:27;;;;;;;31.50;25.33;;;11.00;99.90;;;;;;5091647;28;20213;-82
2024/03/07 12:17:55;;;;;;;31.97;25.87;;;11.10;99.90;;;;;;5092251;28;20168;-83
2024/03/07 12:20:30;;;;;;;28.30;22.50;;;11.10;99.90;;;;;;5091447;28;20241;-83
2024/03/07 12:23:01;;;;;;;34.03;25.83;;;11.00;99.90;;;;;;5091415;28;20179;-83
2024/03/07 12:25:27;;;;;;;37.53;26.13;;;10.80;99.90;;;;;;5092122;28;20172;-83
2024/03/07 12:28:05;;;;;;;34.23;26.40;;;10.80;99.90;;;;;;5091393;28;20171;-83
2024/03/07 12:30:33;;;;;;;33.63;24.83;;;10.80;99.90;;;;;;5091324;28;20210;-83
2024/03/07 12:33:04;;;;;;;31.10;24.97;;;10.70;99.90;;;;;;5091011;28;20184;-83
2024/03/07 12:35:31;;;;;;;31.53;22.20;;;10.80;99.90;;;;;;5091099;28;20180;-84
2024/03/07 12:37:59;;;;;;;31.90;24.23;;;10.60;99.90;;;;;;5091047;28;20168;-83
2024/03/07 12:40:28;;;;;;;33.77;26.37;;;10.60;99.90;;;;;;5091257;28;20172;-85
2024/03/07 12:42:54;;;;;;;34.87;24.80;;;10.60;99.90;;;;;;5091116;28;20218;-83